createdAt,value
2022-12-19T00:00:49.431Z,18.50
2022-12-19T00:03:16.632Z,20.75
2022-12-19T00:05:43.726Z,22.55
2022-12-19T00:08:19.560Z,21.40
2022-12-19T00:10:59.458Z,23.67
2022-12-19T00:13:27.413Z,23.35
2022-12-19T00:16:04.669Z,23.40
2022-12-19T00:18:31.800Z,23.55
2022-12-19T00:21:01.203Z,22.75
2022-12-19T00:23:30.239Z,22.02
2022-12-19T00:26:12.734Z,22.77
2022-12-19T00:28:40.411Z,23.70
2022-12-19T00:31:09.546Z,23.58
2022-12-19T00:33:36.619Z,22.48
2022-12-19T00:36:11.605Z,19.75
2022-12-19T00:38:38.950Z,22.92
2022-12-19T00:41:17.452Z,22.60
2022-12-19T00:43:45.355Z,18.00
2022-12-19T00:46:15.120Z,19.95
2022-12-19T00:48:43.108Z,19.25
2022-12-19T00:51:13.580Z,16.17
2022-12-19T00:53:43.443Z,23.15
2022-12-19T00:56:16.354Z,22.92
2022-12-19T00:58:47.145Z,23.13
2022-12-19T01:01:34.331Z,23.20
2022-12-19T01:06:51.705Z,22.67
2022-12-19T01:09:18.711Z,15.82
2022-12-19T01:12:04.156Z,24.00
2022-12-19T01:18:56.283Z,21.73
2022-12-19T01:21:25.357Z,23.55
2022-12-19T01:23:53.039Z,20.88
2022-12-19T01:26:20.095Z,20.80
2022-12-19T01:28:47.859Z,20.80
2022-12-19T01:31:14.948Z,23.60
2022-12-19T01:33:42.785Z,14.88
2022-12-19T01:36:12.282Z,22.05
2022-12-19T01:38:39.335Z,20.23
2022-12-19T01:41:07.193Z,25.27
2022-12-19T01:44:14.125Z,22.30
2022-12-19T01:49:34.393Z,22.95
2022-12-19T01:52:07.818Z,23.33
2022-12-19T01:54:40.719Z,21.83
2022-12-19T01:57:14.329Z,23.45
2022-12-19T01:59:46.741Z,21.42
2022-12-19T02:02:34.318Z,22.33
2022-12-19T02:05:03.445Z,23.42
2022-12-19T02:07:32.761Z,14.60
2022-12-19T02:12:41.897Z,22.90
2022-12-19T02:15:11.257Z,21.42
2022-12-19T02:18:01.595Z,24.83
2022-12-19T02:20:57.818Z,23.35
2022-12-19T02:23:51.077Z,23.48
2022-12-19T02:26:37.420Z,23.10
2022-12-19T02:29:07.732Z,23.13
2022-12-19T02:31:44.580Z,23.58
2022-12-19T02:34:33.826Z,23.35
2022-12-19T02:37:30.805Z,23.83
2022-12-19T02:40:16.524Z,15.57
2022-12-19T02:42:50.732Z,22.55
2022-12-19T02:45:24.698Z,18.05
2022-12-19T02:48:05.722Z,16.85
2022-12-19T02:50:42.693Z,19.90
2022-12-19T02:53:14.367Z,23.88
2022-12-19T02:55:58.445Z,22.17
2022-12-19T02:58:36.331Z,18.30
2022-12-19T03:01:24.998Z,17.75
2022-12-19T03:04:23.944Z,22.98
2022-12-19T03:07:11.754Z,22.15
2022-12-19T03:09:57.370Z,12.40
2022-12-19T03:12:34.672Z,22.55
2022-12-19T03:15:02.648Z,23.08
2022-12-19T03:17:34.908Z,22.67
2022-12-19T03:20:05.503Z,18.92
2022-12-19T03:22:47.959Z,22.83
2022-12-19T03:25:15.237Z,25.35
2022-12-19T03:27:43.061Z,24.80
2022-12-19T03:30:13.645Z,24.13
2022-12-19T03:32:44.132Z,14.18
2022-12-19T03:35:18.911Z,18.60
2022-12-19T03:37:49.419Z,20.00
2022-12-19T03:40:19.597Z,23.80
2022-12-19T03:43:07.409Z,22.60
2022-12-19T03:45:59.971Z,19.23
2022-12-19T03:48:43.622Z,21.20
2022-12-19T03:51:30.205Z,23.98
2022-12-19T03:54:03.318Z,23.10
2022-12-19T03:56:56.081Z,19.30
2022-12-19T03:59:34.547Z,23.00
2022-12-19T04:02:04.086Z,22.00
2022-12-19T04:04:34.490Z,24.60
2022-12-19T04:07:04.148Z,25.15
2022-12-19T04:09:32.334Z,25.58
2022-12-19T04:12:03.135Z,22.50
2022-12-19T04:14:34.224Z,21.42
2022-12-19T04:17:10.320Z,25.02
2022-12-19T04:19:45.086Z,24.08
2022-12-19T04:22:39.679Z,23.10
2022-12-19T04:25:11.457Z,23.52
2022-12-19T04:27:41.594Z,24.95
2022-12-19T04:30:09.711Z,23.35
2022-12-19T04:32:37.869Z,21.65
2022-12-19T04:35:05.584Z,21.33
2022-12-19T04:37:32.660Z,14.10
2022-12-19T04:40:00.157Z,22.30
2022-12-19T04:42:27.186Z,26.63
2022-12-19T04:44:54.224Z,24.73
2022-12-19T04:47:21.281Z,25.70
2022-12-19T04:49:48.311Z,30.08
2022-12-19T04:52:15.454Z,18.67
2022-12-19T04:54:42.492Z,23.55
2022-12-19T04:57:09.566Z,21.98
2022-12-19T04:59:36.588Z,24.50
2022-12-19T05:02:03.849Z,24.70
2022-12-19T05:04:30.941Z,23.02
2022-12-19T05:06:58.027Z,24.98
2022-12-19T05:09:25.914Z,27.27
2022-12-19T05:11:52.904Z,26.98
2022-12-19T05:14:19.942Z,25.50
2022-12-19T05:16:47.061Z,26.30
2022-12-19T05:19:14.116Z,28.92
2022-12-19T05:21:41.468Z,23.75
2022-12-19T05:28:35.087Z,27.73
2022-12-19T05:31:11.705Z,28.95
2022-12-19T05:33:39.689Z,26.73
2022-12-19T05:36:08.563Z,20.85
2022-12-19T05:38:36.587Z,28.27
2022-12-19T05:41:14.695Z,27.17
2022-12-19T05:43:42.385Z,27.20
2022-12-19T05:46:09.429Z,26.15
2022-12-19T05:48:37.549Z,28.40
2022-12-19T05:51:05.329Z,23.65
2022-12-19T05:53:32.692Z,25.92
2022-12-19T05:56:08.672Z,24.77
2022-12-19T05:58:36.726Z,27.27
2022-12-19T06:01:13.355Z,27.80
2022-12-19T06:03:41.046Z,28.15
2022-12-19T06:06:11.672Z,28.00
2022-12-19T06:08:39.236Z,28.00
2022-12-19T06:11:08.097Z,27.38
2022-12-19T06:13:36.344Z,21.75
2022-12-19T06:16:23.319Z,28.40
2022-12-19T06:18:50.898Z,26.52
2022-12-19T06:21:20.751Z,17.85
2022-12-19T06:23:48.187Z,27.88
2022-12-19T06:26:19.868Z,29.00
2022-12-19T06:30:00.734Z,25.27
2022-12-19T06:32:27.735Z,24.88
2022-12-19T06:35:04.168Z,25.05
2022-12-19T06:37:31.714Z,22.85
2022-12-19T06:39:58.768Z,22.60
2022-12-19T06:42:25.894Z,21.83
2022-12-19T06:44:55.973Z,30.08
2022-12-19T06:47:24.615Z,25.02
2022-12-19T06:49:51.816Z,20.20
2022-12-19T06:52:19.030Z,31.90
2022-12-19T06:54:46.125Z,28.95
2022-12-19T06:57:13.185Z,29.58
2022-12-19T06:59:40.221Z,24.40
2022-12-19T07:03:00.158Z,22.52
2022-12-19T07:05:27.698Z,28.35
2022-12-19T07:07:55.110Z,27.10
2022-12-19T07:10:22.282Z,29.35
2022-12-19T07:12:49.337Z,18.92
2022-12-19T07:15:16.618Z,27.13
2022-12-19T07:17:43.963Z,28.75
2022-12-19T07:20:12.319Z,29.48
2022-12-19T07:22:39.819Z,28.23
2022-12-19T07:25:07.465Z,29.90
2022-12-19T07:27:36.257Z,27.45
2022-12-19T07:30:05.772Z,25.38
2022-12-19T07:34:59.938Z,26.90
2022-12-19T07:37:26.967Z,27.35
2022-12-19T07:39:53.994Z,26.15
2022-12-19T07:42:21.577Z,22.77
2022-12-19T07:47:17.531Z,20.80
2022-12-19T07:49:44.648Z,25.38
2022-12-19T07:52:11.780Z,24.73
2022-12-19T07:54:38.842Z,26.77
2022-12-19T07:57:05.833Z,29.08
2022-12-19T08:03:55.234Z,25.55
2022-12-19T08:06:23.560Z,26.52
2022-12-19T08:08:51.070Z,27.58
2022-12-19T08:11:26.450Z,29.42
2022-12-19T08:13:59.643Z,26.95
2022-12-19T08:16:28.130Z,25.48
2022-12-19T08:18:55.886Z,22.53
2022-12-19T08:21:25.182Z,29.10
2022-12-19T08:23:52.608Z,26.58
2022-12-19T08:26:25.573Z,28.17
2022-12-19T08:28:57.413Z,23.95
2022-12-19T08:31:26.869Z,26.23
2022-12-19T08:36:23.232Z,26.52
2022-12-19T08:38:51.102Z,25.50
2022-12-19T08:41:18.662Z,24.88
2022-12-19T08:43:54.031Z,26.45
2022-12-19T08:46:21.884Z,26.58
2022-12-19T08:48:49.326Z,26.98
2022-12-19T08:51:17.519Z,25.73
2022-12-19T08:53:46.632Z,26.35
2022-12-19T08:56:19.411Z,28.73
2022-12-19T08:58:47.498Z,29.33
2022-12-19T09:02:11.536Z,27.65
2022-12-19T09:06:01.765Z,24.73
2022-12-19T09:07:25.703Z,27.48
2022-12-19T09:09:52.785Z,25.70
2022-12-19T09:12:19.984Z,24.58
2022-12-19T09:14:47.337Z,23.83
2022-12-19T09:17:14.562Z,21.92
2022-12-19T09:19:42.624Z,26.40
2022-12-19T09:22:14.722Z,29.33
2022-12-19T09:24:41.789Z,25.90
2022-12-19T09:27:09.378Z,25.45
2022-12-19T09:29:36.436Z,27.50
2022-12-19T09:32:03.481Z,19.00
2022-12-19T09:34:36.753Z,24.33
2022-12-19T09:37:16.270Z,23.45
2022-12-19T09:39:48.154Z,25.90
2022-12-19T09:42:15.227Z,25.00
2022-12-19T09:45:26.750Z,23.98
2022-12-19T09:47:59.329Z,29.15
2022-12-19T09:50:51.168Z,27.80
2022-12-19T09:53:58.056Z,26.90
2022-12-19T09:56:30.315Z,25.80
2022-12-19T09:59:12.256Z,22.35
2022-12-19T10:01:56.398Z,27.83
2022-12-19T10:04:27.758Z,24.08
2022-12-19T10:07:18.501Z,28.00
2022-12-19T10:12:33.020Z,30.48
2022-12-19T10:13:02.553Z,29.83
2022-12-19T10:15:59.926Z,22.33
2022-12-19T10:18:56.975Z,25.85
2022-12-19T10:25:09.193Z,26.02
2022-12-19T10:28:14.746Z,26.65
2022-12-19T10:31:22.260Z,25.27
2022-12-19T10:34:18.831Z,25.23
2022-12-19T10:37:24.527Z,26.73
2022-12-19T10:39:57.516Z,24.98
2022-12-19T10:42:32.997Z,24.55
2022-12-19T10:45:04.948Z,20.90
2022-12-19T10:47:32.104Z,21.15
2022-12-19T10:50:03.981Z,25.85
2022-12-19T10:52:48.602Z,25.75
2022-12-19T10:57:51.918Z,24.10
2022-12-19T11:00:20.193Z,23.00
2022-12-19T11:03:04.542Z,24.73
2022-12-19T11:05:58.183Z,24.05
2022-12-19T11:08:27.100Z,23.77
2022-12-19T11:11:47.776Z,25.15
2022-12-19T11:18:25.753Z,24.48
2022-12-19T11:21:33.951Z,24.35
2022-12-19T11:29:17.101Z,20.55
2022-12-19T11:30:08.454Z,24.98
2022-12-19T11:30:36.678Z,23.35
2022-12-19T11:30:36.761Z,22.55
2022-12-19T11:32:31.498Z,25.08
2022-12-19T11:34:27.206Z,24.92
2022-12-19T11:37:16.915Z,21.37
2022-12-19T11:40:02.028Z,25.05
2022-12-19T11:43:42.090Z,24.65
2022-12-19T11:46:09.065Z,25.00
2022-12-19T11:48:41.282Z,26.17
2022-12-19T11:51:25.563Z,24.85
2022-12-19T11:54:01.918Z,30.08
2022-12-19T11:56:29.841Z,30.58
2022-12-19T11:59:36.647Z,24.20
2022-12-19T12:02:46.713Z,26.50
2022-12-19T12:05:28.873Z,23.58
2022-12-19T12:09:02.834Z,24.85
2022-12-19T12:19:39.297Z,22.73
2022-12-19T12:25:25.854Z,23.10
2022-12-19T12:31:05.470Z,25.08
2022-12-19T12:31:09.793Z,23.70
2022-12-19T12:31:14.065Z,15.60
2022-12-19T12:31:52.739Z,23.02
2022-12-19T12:31:54.265Z,24.15
2022-12-19T12:35:54.018Z,24.25
2022-12-19T12:39:14.532Z,21.85
2022-12-19T12:42:05.533Z,24.65
2022-12-19T12:44:45.130Z,24.98
2022-12-19T12:47:19.019Z,25.80
2022-12-19T12:49:55.844Z,24.45
2022-12-19T12:52:37.991Z,30.80
2022-12-19T12:55:34.759Z,35.72
2022-12-19T12:58:01.768Z,35.13
2022-12-19T13:00:34.313Z,33.33
2022-12-19T13:03:12.312Z,32.10
2022-12-19T13:06:21.671Z,36.60
2022-12-19T13:08:50.171Z,38.65
2022-12-19T13:11:38.677Z,29.88
2022-12-19T13:14:27.236Z,25.77
2022-12-19T13:16:55.205Z,14.27
2022-12-19T13:19:29.398Z,21.70
2022-12-19T13:22:17.773Z,24.70
2022-12-19T13:24:56.887Z,22.00
2022-12-19T13:27:40.747Z,23.98
2022-12-19T13:31:18.999Z,24.67
2022-12-19T13:33:55.745Z,21.60
2022-12-19T13:39:51.442Z,24.27
2022-12-19T13:40:09.171Z,21.92
2022-12-19T13:43:10.417Z,23.58
2022-12-19T13:45:42.337Z,23.88
2022-12-19T13:48:16.702Z,25.70
2022-12-19T13:50:48.018Z,22.98
2022-12-19T13:53:23.159Z,23.67
2022-12-19T13:55:53.479Z,24.50
2022-12-19T13:58:37.701Z,23.63
2022-12-19T14:01:21.213Z,21.33
2022-12-19T14:03:50.371Z,25.75
2022-12-19T14:06:29.994Z,24.60
2022-12-19T14:13:46.450Z,21.23
2022-12-19T14:15:17.728Z,18.15
2022-12-19T14:17:49.502Z,21.47
2022-12-19T14:22:02.017Z,21.98
2022-12-19T14:23:11.594Z,23.80
2022-12-19T14:28:18.709Z,23.08
2022-12-19T14:28:54.773Z,21.17
2022-12-19T14:31:23.961Z,24.60
2022-12-19T14:34:18.609Z,18.30
2022-12-19T14:36:49.458Z,24.70
2022-12-19T14:39:24.644Z,25.98
2022-12-19T14:42:31.397Z,25.83
2022-12-19T14:52:26.108Z,26.73
2022-12-19T14:53:34.064Z,25.85
2022-12-19T14:54:40.845Z,25.08
2022-12-19T14:57:50.570Z,26.02
2022-12-19T15:01:07.139Z,26.60
2022-12-19T15:03:34.491Z,23.95
2022-12-19T15:07:08.951Z,25.08
2022-12-19T15:14:49.011Z,23.10
2022-12-19T15:15:35.964Z,20.83
2022-12-19T15:18:16.210Z,23.67
2022-12-19T15:20:43.252Z,24.67
2022-12-19T15:23:10.464Z,26.88
2022-12-19T15:26:03.214Z,24.92
2022-12-19T15:28:50.920Z,20.98
2022-12-19T15:31:27.423Z,25.13
2022-12-19T15:36:41.928Z,26.80
2022-12-19T15:39:09.095Z,24.98
2022-12-19T15:41:36.267Z,27.77
2022-12-19T15:44:33.304Z,32.03
2022-12-19T15:47:02.564Z,31.05
2022-12-19T15:49:31.601Z,27.95
2022-12-19T15:51:59.756Z,20.85
2022-12-19T15:57:32.538Z,27.42
2022-12-19T16:00:25.464Z,28.10
2022-12-19T16:03:23.348Z,28.70
2022-12-19T16:05:41.585Z,28.15
2022-12-19T16:08:20.631Z,27.95
2022-12-19T16:10:55.952Z,27.20
2022-12-19T16:13:32.135Z,26.92
2022-12-19T16:15:59.818Z,27.67
2022-12-19T16:18:27.263Z,28.95
2022-12-19T16:20:54.641Z,26.77
2022-12-19T16:23:25.403Z,29.63
2022-12-19T16:25:53.002Z,26.40
2022-12-19T16:28:29.073Z,28.50
2022-12-19T16:30:57.879Z,37.15
2022-12-19T16:33:30.865Z,33.83
2022-12-19T16:36:06.923Z,29.17
2022-12-19T16:38:35.805Z,32.15
2022-12-19T16:41:03.316Z,28.45
2022-12-19T16:43:44.484Z,25.30
2022-12-19T16:46:18.655Z,27.00
2022-12-19T16:48:46.180Z,27.55
2022-12-19T16:51:20.345Z,24.58
2022-12-19T16:53:48.882Z,27.15
2022-12-19T16:56:24.469Z,18.58
2022-12-19T16:58:53.868Z,26.13
2022-12-19T17:01:21.254Z,25.20
2022-12-19T17:03:49.070Z,25.08
2022-12-19T17:06:20.002Z,20.98
2022-12-19T17:08:49.341Z,24.85
2022-12-19T17:11:21.283Z,26.20
2022-12-19T17:13:51.885Z,25.83
2022-12-19T17:16:19.521Z,23.05
2022-12-19T17:18:47.446Z,25.23
2022-12-19T17:21:21.509Z,25.85
2022-12-19T17:23:49.949Z,27.08
2022-12-19T17:26:18.112Z,27.38
2022-12-19T17:28:48.427Z,29.45
2022-12-19T17:31:28.795Z,21.10
2022-12-19T17:33:58.271Z,23.50
2022-12-19T17:39:20.300Z,20.90
2022-12-19T17:41:48.910Z,24.50
2022-12-19T17:44:16.096Z,19.10
2022-12-19T17:46:44.416Z,24.42
2022-12-19T17:49:16.817Z,26.02
2022-12-19T17:51:48.979Z,25.92
2022-12-19T17:54:16.104Z,26.83
2022-12-19T17:56:43.173Z,23.63
2022-12-19T17:59:10.361Z,25.73
2022-12-19T18:01:38.451Z,24.65
2022-12-19T18:04:05.710Z,17.73
2022-12-19T18:06:32.910Z,23.55
2022-12-19T18:09:02.785Z,24.23
2022-12-19T18:11:35.508Z,24.65
2022-12-19T18:14:07.088Z,23.95
2022-12-19T18:16:34.344Z,25.05
2022-12-19T18:19:01.557Z,28.52
2022-12-19T18:21:28.630Z,25.25
2022-12-19T18:23:55.743Z,23.77
2022-12-19T18:26:23.005Z,23.58
2022-12-19T18:28:50.207Z,24.67
2022-12-19T18:31:26.571Z,21.80
2022-12-19T18:33:55.460Z,22.60
2022-12-19T18:36:25.413Z,23.70
2022-12-19T18:38:53.252Z,23.67
2022-12-19T18:41:20.543Z,22.55
2022-12-19T18:43:48.651Z,24.58
2022-12-19T18:46:20.699Z,23.55
2022-12-19T18:48:47.867Z,21.88
2022-12-19T18:51:19.751Z,22.17
2022-12-19T18:53:48.627Z,23.80
2022-12-19T18:56:15.882Z,25.70
2022-12-19T18:58:43.031Z,23.67
2022-12-19T19:01:15.652Z,30.55
2022-12-19T19:03:49.458Z,28.88
2022-12-19T19:06:23.162Z,25.65
2022-12-19T19:08:53.123Z,24.23
2022-12-19T19:11:58.719Z,25.97
2022-12-19T19:14:25.774Z,26.45
2022-12-19T19:16:53.247Z,25.63
2022-12-19T19:19:20.362Z,26.15
2022-12-19T19:21:47.490Z,25.63
2022-12-19T19:24:18.898Z,23.15
2022-12-19T19:26:46.120Z,23.52
2022-12-19T19:29:18.951Z,21.85
2022-12-19T19:31:48.996Z,23.48
2022-12-19T19:34:21.828Z,24.05
2022-12-19T19:36:54.882Z,24.60
2022-12-19T19:39:23.107Z,24.27
2022-12-19T19:41:50.196Z,25.05
2022-12-19T19:44:17.456Z,23.40
2022-12-19T19:46:45.018Z,22.98
2022-12-19T19:49:12.523Z,22.48
2022-12-19T19:51:39.639Z,25.17
2022-12-19T19:54:07.594Z,38.53
2022-12-19T19:56:34.688Z,41.00
2022-12-19T19:59:01.954Z,39.13
2022-12-19T20:01:35.310Z,43.92
2022-12-19T20:04:02.642Z,50.10
2022-12-19T20:06:29.769Z,38.92
2022-12-19T20:08:56.853Z,31.45
2022-12-19T20:11:23.881Z,26.23
2022-12-19T20:13:50.960Z,23.65
2022-12-19T20:16:19.199Z,24.13
2022-12-19T20:18:51.418Z,24.05
2022-12-19T20:21:19.999Z,23.20
2022-12-19T20:23:47.735Z,25.07
2022-12-19T20:26:16.500Z,25.35
2022-12-19T20:28:49.069Z,25.70
2022-12-19T20:31:18.653Z,25.02
2022-12-19T20:33:46.509Z,24.52
2022-12-19T20:36:15.976Z,23.42
2022-12-19T20:38:44.205Z,24.05
2022-12-19T20:41:11.401Z,23.05
2022-12-19T20:43:38.867Z,25.52
2022-12-19T20:46:12.425Z,24.90
2022-12-19T20:48:40.103Z,24.02
2022-12-19T20:51:08.076Z,21.13
2022-12-19T20:53:36.395Z,21.80
2022-12-19T20:56:05.702Z,22.30
2022-12-19T20:58:34.558Z,21.50
2022-12-19T21:01:07.528Z,16.38
2022-12-19T21:03:35.549Z,25.25
2022-12-19T21:06:03.644Z,22.60
2022-12-19T21:08:31.187Z,23.08
2022-12-19T21:10:59.562Z,26.48
2022-12-19T21:13:26.928Z,27.05
2022-12-19T21:15:59.381Z,24.13
2022-12-19T21:18:27.595Z,22.55
2022-12-19T21:20:55.839Z,22.30
2022-12-19T21:23:24.196Z,22.92
2022-12-19T21:25:51.985Z,23.88
2022-12-19T21:28:19.426Z,22.52
2022-12-19T21:30:46.485Z,23.45
2022-12-19T21:33:13.558Z,25.00
2022-12-19T21:35:40.635Z,26.73
2022-12-19T21:38:07.639Z,26.63
2022-12-19T21:40:36.611Z,26.38
2022-12-19T21:43:11.229Z,25.83
2022-12-19T21:45:39.257Z,27.13
2022-12-19T21:48:06.448Z,26.50
2022-12-19T21:50:36.187Z,23.45
2022-12-19T21:53:04.244Z,23.17
2022-12-19T21:55:31.307Z,23.33
2022-12-19T21:57:59.770Z,23.10
2022-12-19T22:00:26.872Z,25.23
2022-12-19T22:03:13.488Z,24.02
2022-12-19T22:05:41.171Z,24.52
2022-12-19T22:08:09.783Z,25.40
2022-12-19T22:10:39.869Z,24.33
2022-12-19T22:13:06.881Z,23.27
2022-12-19T22:15:36.523Z,22.58
2022-12-19T22:18:03.821Z,22.15
2022-12-19T22:20:30.881Z,22.13
2022-12-19T22:22:57.852Z,21.20
2022-12-19T22:25:24.924Z,23.08
2022-12-19T22:27:54.950Z,22.45
2022-12-19T22:30:21.983Z,22.30
2022-12-19T22:32:48.982Z,22.23
2022-12-19T22:35:16.076Z,22.05
2022-12-19T22:37:43.935Z,22.15
2022-12-19T22:40:13.379Z,21.58
2022-12-19T22:42:40.399Z,21.95
2022-12-19T22:45:08.040Z,21.05
2022-12-19T22:47:35.851Z,21.27
2022-12-19T22:50:02.953Z,22.63
2022-12-19T22:52:30.016Z,21.50
2022-12-19T22:54:57.086Z,21.45
2022-12-19T22:57:24.129Z,22.30
2022-12-19T22:59:51.147Z,22.30
2022-12-19T23:02:18.249Z,20.73
2022-12-19T23:04:45.361Z,20.40
2022-12-19T23:07:12.385Z,21.42
2022-12-19T23:09:39.753Z,21.60
2022-12-19T23:12:06.923Z,21.55
2022-12-19T23:14:34.042Z,21.95
2022-12-19T23:17:01.120Z,21.77
2022-12-19T23:19:28.225Z,22.80
2022-12-19T23:21:55.387Z,22.25
2022-12-19T23:24:22.503Z,23.65
2022-12-19T23:26:49.537Z,21.60
2022-12-19T23:29:16.610Z,21.00
2022-12-19T23:31:45.842Z,21.02
2022-12-19T23:34:13.843Z,22.00
2022-12-19T23:39:28.263Z,20.90
2022-12-19T23:41:55.464Z,21.70
2022-12-19T23:44:22.790Z,19.92
2022-12-19T23:46:49.819Z,20.30
2022-12-19T23:49:16.973Z,22.35
2022-12-19T23:51:44.015Z,23.02
2022-12-19T23:54:11.533Z,21.35
2022-12-19T23:56:38.624Z,22.05
2022-12-19T23:59:05.739Z,21.80
